createdAt,value
2018-02-09T00:00:33.012Z,19.58
2018-02-09T00:01:42.202Z,19.56
2018-02-09T00:02:51.185Z,19.56
2018-02-09T00:03:59.930Z,19.51
2018-02-09T00:05:08.630Z,19.48
2018-02-09T00:06:17.352Z,19.51
2018-02-09T00:07:26.340Z,19.5
2018-02-09T00:08:35.322Z,19.55
2018-02-09T00:09:44.274Z,19.55
2018-02-09T00:10:53.755Z,19.56
2018-02-09T00:12:02.967Z,19.55
2018-02-09T00:13:12.442Z,19.55
2018-02-09T00:14:21.389Z,19.5
2018-02-09T00:15:30.377Z,19.48
2018-02-09T00:16:39.331Z,19.51
2018-02-09T00:17:48.606Z,19.47
2018-02-09T00:18:57.663Z,19.43
2018-02-09T00:20:06.873Z,19.44
2018-02-09T00:21:16.115Z,19.47
2018-02-09T00:22:25.336Z,19.4
2018-02-09T00:23:34.068Z,19.44
2018-02-09T00:24:43.023Z,19.51
2018-02-09T00:25:51.793Z,19.47
2018-02-09T00:27:00.529Z,19.46
2018-02-09T00:28:09.195Z,19.44
2018-02-09T00:29:18.154Z,19.46
2018-02-09T00:30:27.664Z,19.47
2018-02-09T00:31:36.884Z,19.5
2018-02-09T00:32:45.579Z,19.44
2018-02-09T00:33:55.094Z,19.47
2018-02-09T00:35:04.308Z,19.46
2018-02-09T00:36:13.005Z,19.48
2018-02-09T00:37:21.685Z,19.46
2018-02-09T00:38:30.702Z,19.44
2018-02-09T00:39:39.476Z,19.48
2018-02-09T00:40:48.183Z,19.44
2018-02-09T00:41:56.878Z,19.46
2018-02-09T00:43:05.572Z,19.44
2018-02-09T00:44:15.038Z,19.39
2018-02-09T00:45:24.016Z,19.5
2018-02-09T00:46:32.729Z,19.46
2018-02-09T00:47:41.426Z,19.5
2018-02-09T00:48:50.654Z,19.39
2018-02-09T00:49:59.874Z,19.41
2018-02-09T00:51:08.858Z,19.37
2018-02-09T00:52:18.083Z,19.46
2018-02-09T00:53:27.632Z,19.37
2018-02-09T00:54:36.872Z,19.44
2018-02-09T00:55:46.406Z,19.39
2018-02-09T00:56:55.659Z,19.48
2018-02-09T00:58:04.614Z,19.4
2018-02-09T00:59:13.420Z,19.4
2018-02-09T01:00:22.411Z,19.46
2018-02-09T01:01:31.108Z,19.43
2018-02-09T01:02:40.072Z,19.44
2018-02-09T01:03:49.268Z,19.48
2018-02-09T01:04:58.588Z,19.46
2018-02-09T01:06:08.083Z,19.46
2018-02-09T01:07:16.785Z,19.43
2018-02-09T01:08:25.994Z,19.32
2018-02-09T01:09:34.673Z,19.48
2018-02-09T01:10:43.880Z,19.32
2018-02-09T01:11:53.365Z,19.37
2018-02-09T01:13:02.307Z,19.33
2018-02-09T01:14:11.259Z,19.39
2018-02-09T01:15:20.220Z,19.39
2018-02-09T01:16:29.157Z,19.31
2018-02-09T01:17:37.862Z,19.39
2018-02-09T01:18:46.804Z,19.37
2018-02-09T01:19:56.042Z,19.31
2018-02-09T01:21:05.802Z,19.36
2018-02-09T01:22:14.766Z,19.36
2018-02-09T01:23:23.703Z,19.29
2018-02-09T01:24:33.192Z,19.41
2018-02-09T01:25:41.906Z,19.43
2018-02-09T01:26:50.602Z,19.26
2018-02-09T01:27:59.589Z,19.29
2018-02-09T01:29:08.278Z,19.32
2018-02-09T01:30:17.027Z,19.32
2018-02-09T01:31:25.705Z,19.32
2018-02-09T01:32:34.946Z,19.31
2018-02-09T01:33:44.170Z,19.32
2018-02-09T01:34:53.389Z,19.28
2018-02-09T01:36:02.370Z,19.36
2018-02-09T01:37:11.327Z,19.26
2018-02-09T01:38:20.290Z,19.32
2018-02-09T01:39:29.315Z,19.26
2018-02-09T01:40:38.566Z,19.26
2018-02-09T01:41:47.506Z,19.28
2018-02-09T01:42:56.446Z,19.29
2018-02-09T01:44:05.991Z,19.29
2018-02-09T01:45:15.252Z,19.28
2018-02-09T01:46:23.936Z,19.25
2018-02-09T01:47:32.635Z,19.23
2018-02-09T01:48:41.568Z,19.26
2018-02-09T01:49:50.818Z,19.25
2018-02-09T01:50:59.763Z,19.22
2018-02-09T01:52:08.701Z,19.22
2018-02-09T01:53:17.926Z,19.26
2018-02-09T01:54:27.143Z,19.32
2018-02-09T01:55:36.090Z,19.31
2018-02-09T01:56:45.053Z,19.18
2018-02-09T01:57:54.003Z,19.22
2018-02-09T01:59:02.842Z,19.26
2018-02-09T02:00:11.546Z,19.23
2018-02-09T02:01:20.515Z,19.25
2018-02-09T02:02:29.752Z,19.29
2018-02-09T02:03:38.968Z,19.25
2018-02-09T02:04:48.708Z,19.19
2018-02-09T02:05:57.924Z,19.28
2018-02-09T02:07:06.887Z,19.25
2018-02-09T02:08:16.105Z,19.22
2018-02-09T02:09:25.332Z,19.26
2018-02-09T02:10:34.271Z,19.21
2018-02-09T02:11:43.227Z,19.16
2018-02-09T02:12:51.930Z,19.25
2018-02-09T02:14:01.153Z,19.21
2018-02-09T02:15:10.091Z,19.21
2018-02-09T02:16:19.047Z,19.21
2018-02-09T02:17:28.022Z,19.16
2018-02-09T02:18:37.026Z,19.11
2018-02-09T02:19:45.759Z,19.11
2018-02-09T02:20:54.463Z,19.11
2018-02-09T02:22:03.412Z,19.1
2018-02-09T02:23:12.671Z,19.07
2018-02-09T02:24:21.364Z,19.13
2018-02-09T02:25:30.148Z,19.14
2018-02-09T02:26:38.857Z,19.11
2018-02-09T02:27:48.067Z,19.06
2018-02-09T02:28:57.266Z,19.13
2018-02-09T02:30:06.231Z,19.08
2018-02-09T02:31:15.058Z,19.14
2018-02-09T02:32:24.277Z,19.08
2018-02-09T02:33:33.481Z,19.08
2018-02-09T02:34:42.453Z,19.14
2018-02-09T02:35:51.389Z,19.08
2018-02-09T02:37:00.662Z,19.08
2018-02-09T02:38:09.902Z,19.08
2018-02-09T02:39:18.913Z,19.08
2018-02-09T02:40:27.870Z,19.08
2018-02-09T02:41:37.082Z,19.08
2018-02-09T02:42:46.038Z,19.08
2018-02-09T02:43:55.566Z,19.06
2018-02-09T02:45:04.530Z,19.04
2018-02-09T02:46:13.228Z,19.1
2018-02-09T02:47:22.196Z,19.06
2018-02-09T02:48:31.466Z,19.1
2018-02-09T02:49:40.995Z,19.08
2018-02-09T02:50:50.739Z,19.11
2018-02-09T02:51:59.448Z,19.06
2018-02-09T02:53:08.396Z,19.1
2018-02-09T02:54:17.607Z,19.07
2018-02-09T02:55:26.814Z,19
2018-02-09T02:56:36.301Z,19.07
2018-02-09T02:57:46.095Z,19.07
2018-02-09T02:58:55.038Z,19.07
2018-02-09T03:00:04.000Z,19.04
2018-02-09T03:01:13.756Z,19.07
2018-02-09T03:02:22.973Z,19.08
2018-02-09T03:03:31.929Z,19.08
2018-02-09T03:04:40.585Z,18.95
2018-02-09T03:05:49.795Z,19.06
2018-02-09T03:06:59.017Z,19.02
2018-02-09T03:08:07.957Z,18.95
2018-02-09T03:09:16.894Z,18.98
2018-02-09T03:10:25.908Z,18.98
2018-02-09T03:11:35.671Z,19.06
2018-02-09T03:12:44.869Z,19.02
2018-02-09T03:13:53.810Z,18.99
2018-02-09T03:15:02.763Z,18.99
2018-02-09T03:16:11.976Z,19
2018-02-09T03:17:21.275Z,18.95
2018-02-09T03:18:29.979Z,19.04
2018-02-09T03:19:38.961Z,18.95
2018-02-09T03:20:48.246Z,18.91
2018-02-09T03:21:57.199Z,18.98
2018-02-09T03:23:06.403Z,18.98
2018-02-09T03:24:15.431Z,18.95
2018-02-09T03:25:24.441Z,18.9
2018-02-09T03:26:33.434Z,19
2018-02-09T03:27:42.126Z,18.85
2018-02-09T03:28:51.100Z,18.95
2018-02-09T03:30:00.606Z,18.98
2018-02-09T03:31:09.830Z,18.99
2018-02-09T03:32:19.029Z,19
2018-02-09T03:33:27.991Z,18.98
2018-02-09T03:34:36.966Z,18.92
2018-02-09T03:35:45.929Z,18.98
2018-02-09T03:36:55.125Z,19
2018-02-09T03:38:04.082Z,18.95
2018-02-09T03:39:13.021Z,18.99
2018-02-09T03:40:22.478Z,19.02
2018-02-09T03:41:31.421Z,18.95
2018-02-09T03:42:40.616Z,18.92
2018-02-09T03:43:49.304Z,18.95
2018-02-09T03:44:58.007Z,18.92
2018-02-09T03:46:06.978Z,18.94
2018-02-09T03:47:15.693Z,18.94
2018-02-09T03:48:24.657Z,18.91
2018-02-09T03:49:34.295Z,18.98
2018-02-09T03:50:43.502Z,18.85
2018-02-09T03:51:52.555Z,18.95
2018-02-09T03:53:01.243Z,18.95
2018-02-09T03:54:10.460Z,18.95
2018-02-09T03:55:19.430Z,18.92
2018-02-09T03:56:29.202Z,18.91
2018-02-09T03:57:37.982Z,18.99
2018-02-09T03:58:46.697Z,18.94
2018-02-09T03:59:56.428Z,18.92
2018-02-09T04:01:05.402Z,18.94
2018-02-09T04:02:14.365Z,18.92
2018-02-09T04:03:23.303Z,18.92
2018-02-09T04:04:32.283Z,18.91
2018-02-09T04:05:41.510Z,18.94
2018-02-09T04:06:50.476Z,18.95
2018-02-09T04:07:59.191Z,18.92
2018-02-09T04:09:08.120Z,18.94
2018-02-09T04:10:17.357Z,18.9
2018-02-09T04:11:26.039Z,18.87
2018-02-09T04:12:34.723Z,18.9
2018-02-09T04:13:43.668Z,18.94
2018-02-09T04:14:52.895Z,18.98
2018-02-09T04:16:01.851Z,18.92
2018-02-09T04:17:10.793Z,18.82
2018-02-09T04:18:19.737Z,18.91
2018-02-09T04:19:28.963Z,18.81
2018-02-09T04:20:37.658Z,18.84
2018-02-09T04:21:46.884Z,18.88
2018-02-09T04:22:55.887Z,18.9
2018-02-09T04:24:05.092Z,18.82
2018-02-09T04:25:14.604Z,18.9
2018-02-09T04:26:23.552Z,18.87
2018-02-09T04:27:32.225Z,18.87
2018-02-09T04:28:41.704Z,18.88
2018-02-09T04:29:50.692Z,18.87
2018-02-09T04:30:59.657Z,18.87
2018-02-09T04:32:08.850Z,18.87
2018-02-09T04:33:17.545Z,18.87
2018-02-09T04:34:26.755Z,18.88
2018-02-09T04:35:35.970Z,18.88
2018-02-09T04:36:45.035Z,18.82
2018-02-09T04:37:54.102Z,18.84
2018-02-09T04:39:03.040Z,18.85
2018-02-09T04:40:12.077Z,18.85
2018-02-09T04:41:20.775Z,18.84
2018-02-09T04:42:29.509Z,18.84
2018-02-09T04:43:38.559Z,18.85
2018-02-09T04:44:47.788Z,18.88
2018-02-09T04:45:57.275Z,18.87
2018-02-09T04:47:06.209Z,18.78
2018-02-09T04:48:15.434Z,18.82
2018-02-09T04:49:24.930Z,18.88
2018-02-09T04:50:34.396Z,18.85
2018-02-09T04:51:43.357Z,18.82
2018-02-09T04:52:52.845Z,18.8
2018-02-09T04:54:01.907Z,18.78
2018-02-09T04:55:10.594Z,18.75
2018-02-09T04:56:19.571Z,18.76
2018-02-09T04:57:28.794Z,18.75
2018-02-09T04:58:37.730Z,18.81
2018-02-09T04:59:46.713Z,18.78
2018-02-09T05:00:56.033Z,18.8
2018-02-09T05:02:05.250Z,18.73
2018-02-09T05:03:14.192Z,18.78
2018-02-09T05:04:23.138Z,18.81
2018-02-09T05:05:32.122Z,18.8
2018-02-09T05:06:41.342Z,18.73
2018-02-09T05:07:50.285Z,18.8
2018-02-09T05:08:59.553Z,18.78
2018-02-09T05:10:09.092Z,18.76
2018-02-09T05:11:18.066Z,18.82
2018-02-09T05:12:27.298Z,18.8
2018-02-09T05:13:35.996Z,18.75
2018-02-09T05:14:44.936Z,18.82
2018-02-09T05:15:54.413Z,18.67
2018-02-09T05:17:03.106Z,18.78
2018-02-09T05:18:12.141Z,18.75
2018-02-09T05:19:21.110Z,18.72
2018-02-09T05:20:30.074Z,18.72
2018-02-09T05:21:39.300Z,18.72
2018-02-09T05:22:48.756Z,18.75
2018-02-09T05:23:57.430Z,18.73
2018-02-09T05:25:06.639Z,18.73
2018-02-09T05:26:15.861Z,18.72
2018-02-09T05:27:24.846Z,18.8
2018-02-09T05:28:33.590Z,18.67
2018-02-09T05:29:43.097Z,18.7
2018-02-09T05:30:52.107Z,18.8
2018-02-09T05:32:01.410Z,18.7
2018-02-09T05:33:10.619Z,18.7
2018-02-09T05:34:19.578Z,18.78
2018-02-09T05:35:29.356Z,18.76
2018-02-09T05:36:38.325Z,18.82
2018-02-09T05:37:47.030Z,18.75
2018-02-09T05:38:56.247Z,18.88
2018-02-09T05:40:04.944Z,18.81
2018-02-09T05:41:13.758Z,18.95
2018-02-09T05:42:23.180Z,19
2018-02-09T05:43:32.825Z,19.07
2018-02-09T05:44:42.203Z,19.13
2018-02-09T05:45:51.850Z,19.23
2018-02-09T05:47:00.588Z,19.26
2018-02-09T05:48:09.827Z,19.31
2018-02-09T05:49:19.374Z,19.41
2018-02-09T05:50:28.374Z,19.39
2018-02-09T05:51:37.566Z,19.48
2018-02-09T05:52:47.422Z,19.44
2018-02-09T05:53:57.096Z,19.58
2018-02-09T05:55:06.568Z,19.62
2018-02-09T05:56:15.560Z,19.66
2018-02-09T05:57:24.777Z,19.66
2018-02-09T05:58:34.072Z,19.71
2018-02-09T05:59:43.556Z,19.84
2018-02-09T06:00:52.506Z,19.77
2018-02-09T06:02:01.511Z,19.8
2018-02-09T06:03:10.582Z,19.99
2018-02-09T06:04:19.310Z,19.99
2018-02-09T06:05:28.543Z,19.98
2018-02-09T06:06:37.493Z,20.1
2018-02-09T06:07:46.978Z,20.1
2018-02-09T06:08:55.658Z,20.11
2018-02-09T06:10:04.359Z,20.21
2018-02-09T06:11:13.054Z,20.17
2018-02-09T06:12:22.000Z,20.13
2018-02-09T06:13:31.029Z,20.29
2018-02-09T06:14:40.018Z,20.29
2018-02-09T06:15:48.970Z,20.41
2018-02-09T06:16:57.963Z,20.38
2018-02-09T06:18:06.968Z,20.36
2018-02-09T06:19:15.924Z,20.43
2018-02-09T06:20:25.551Z,20.39
2018-02-09T06:21:34.553Z,20.51
2018-02-09T06:22:43.808Z,20.51
2018-02-09T06:23:53.310Z,20.54
2018-02-09T06:25:02.566Z,20.58
2018-02-09T06:26:11.650Z,20.61
2018-02-09T06:27:20.615Z,20.72
2018-02-09T06:28:29.858Z,20.76
2018-02-09T06:29:39.126Z,20.7
2018-02-09T06:30:48.367Z,20.72
2018-02-09T06:31:57.370Z,20.67
2018-02-09T06:33:06.573Z,20.7
2018-02-09T06:34:15.275Z,20.82
2018-02-09T06:35:24.022Z,20.77
2018-02-09T06:36:33.239Z,20.85
2018-02-09T06:37:42.525Z,20.77
2018-02-09T06:38:51.476Z,20.85
2018-02-09T06:40:00.468Z,20.88
2018-02-09T06:41:09.420Z,20.82
2018-02-09T06:42:18.366Z,20.95
2018-02-09T06:43:27.214Z,20.98
2018-02-09T06:44:36.159Z,20.98
2018-02-09T06:45:45.138Z,20.95
2018-02-09T06:46:54.625Z,20.97
2018-02-09T06:48:03.372Z,20.94
2018-02-09T06:49:12.600Z,21.07
2018-02-09T06:50:21.612Z,21.04
2018-02-09T06:51:30.563Z,21.03
2018-02-09T06:52:39.253Z,21.09
2018-02-09T06:53:47.934Z,21.06
2018-02-09T06:54:56.892Z,21.12
2018-02-09T06:56:05.939Z,21.16
2018-02-09T06:57:15.132Z,21.17
2018-02-09T06:58:24.097Z,21.14
2018-02-09T06:59:32.800Z,21.21
2018-02-09T07:00:41.793Z,21.29
2018-02-09T07:01:50.743Z,21.27
2018-02-09T07:02:59.965Z,21.31
2018-02-09T07:04:08.967Z,21.27
2018-02-09T07:05:18.196Z,21.35
2018-02-09T07:06:27.432Z,21.28
2018-02-09T07:07:36.630Z,21.32
2018-02-09T07:08:45.577Z,21.38
2018-02-09T07:09:54.309Z,21.37
2018-02-09T07:11:03.214Z,21.35
2018-02-09T07:12:12.475Z,21.37
2018-02-09T07:13:21.972Z,21.4
2018-02-09T07:14:31.196Z,21.43
2018-02-09T07:15:40.163Z,21.47
2018-02-09T07:16:48.864Z,21.42
2018-02-09T07:17:58.070Z,21.42
2018-02-09T07:19:07.010Z,21.52
2018-02-09T07:20:16.229Z,21.49
2018-02-09T07:21:25.433Z,21.58
2018-02-09T07:22:34.433Z,21.54
2018-02-09T07:23:43.655Z,21.61
2018-02-09T07:24:52.363Z,21.62
2018-02-09T07:26:01.094Z,21.61
2018-02-09T07:27:10.338Z,21.62
2018-02-09T07:28:19.571Z,21.65
2018-02-09T07:29:28.268Z,21.77
2018-02-09T07:30:37.216Z,21.75
2018-02-09T07:31:46.731Z,21.77
2018-02-09T07:32:56.558Z,21.71
2018-02-09T07:34:05.799Z,21.69
2018-02-09T07:35:15.037Z,21.74
2018-02-09T07:36:24.275Z,21.8
2018-02-09T07:37:33.487Z,21.77
2018-02-09T07:38:42.208Z,21.86
2018-02-09T07:39:51.155Z,21.83
2018-02-09T07:41:00.134Z,21.83
2018-02-09T07:42:08.833Z,21.84
2018-02-09T07:43:18.456Z,21.82
2018-02-09T07:44:27.413Z,21.77
2018-02-09T07:45:36.386Z,21.75
2018-02-09T07:46:45.881Z,21.84
2018-02-09T07:47:54.820Z,21.83
2018-02-09T07:49:03.812Z,21.75
2018-02-09T07:50:12.494Z,21.8
2018-02-09T07:51:21.446Z,21.77
2018-02-09T07:52:30.550Z,21.79
2018-02-09T07:53:39.236Z,21.79
2018-02-09T07:54:48.193Z,21.71
2018-02-09T07:55:57.156Z,21.82
2018-02-09T07:57:06.695Z,21.79
2018-02-09T07:58:15.650Z,21.77
2018-02-09T07:59:24.437Z,21.79
2018-02-09T08:00:33.330Z,21.77
2018-02-09T08:01:42.282Z,21.84
2018-02-09T08:02:51.279Z,21.72
2018-02-09T08:04:00.597Z,21.88
2018-02-09T08:05:09.824Z,21.88
2018-02-09T08:06:19.109Z,21.92
2018-02-09T08:07:27.849Z,21.91
2018-02-09T08:08:37.098Z,21.88
2018-02-09T08:09:46.083Z,21.9
2018-02-09T08:10:55.343Z,21.96
2018-02-09T08:12:04.051Z,21.94
2018-02-09T08:13:13.382Z,21.96
2018-02-09T08:14:22.261Z,21.98
2018-02-09T08:15:31.520Z,21.86
2018-02-09T08:16:40.503Z,21.99
2018-02-09T08:17:49.751Z,21.83
2018-02-09T08:18:58.738Z,22
2018-02-09T08:20:07.439Z,21.94
2018-02-09T08:21:16.957Z,21.91
2018-02-09T08:22:25.883Z,21.99
2018-02-09T08:23:34.566Z,21.94
2018-02-09T08:24:44.593Z,21.86
2018-02-09T08:25:53.817Z,21.92
2018-02-09T08:27:02.860Z,21.86
2018-02-09T08:28:11.809Z,21.86
2018-02-09T08:29:20.768Z,21.79
2018-02-09T08:30:30.237Z,21.68
2018-02-09T08:31:39.184Z,21.67
2018-02-09T08:32:47.980Z,21.65
2018-02-09T08:33:56.685Z,21.67
2018-02-09T08:35:05.945Z,21.58
2018-02-09T08:36:15.180Z,21.52
2018-02-09T08:37:24.139Z,21.59
2018-02-09T08:38:32.839Z,21.4
2018-02-09T08:39:42.067Z,21.43
2018-02-09T08:40:50.780Z,21.47
2018-02-09T08:41:59.733Z,21.37
2018-02-09T08:43:08.438Z,21.27
2018-02-09T08:44:17.199Z,21.25
2018-02-09T08:45:26.152Z,21.22
2018-02-09T08:46:35.362Z,21.31
2018-02-09T08:47:44.578Z,21.22
2018-02-09T08:48:53.279Z,21.14
2018-02-09T08:50:02.284Z,21.14
2018-02-09T08:51:11.241Z,21.03
2018-02-09T08:52:20.250Z,21.04
2018-02-09T08:53:29.246Z,21.03
2018-02-09T08:54:37.965Z,21.01
2018-02-09T08:55:46.934Z,20.97
2018-02-09T08:56:55.881Z,20.98
2018-02-09T08:58:05.114Z,20.85
2018-02-09T08:59:14.331Z,20.91
2018-02-09T09:00:23.375Z,20.88
2018-02-09T09:01:32.542Z,20.8
2018-02-09T09:02:42.074Z,20.76
2018-02-09T09:03:51.069Z,20.79
2018-02-09T09:05:00.290Z,20.79
2018-02-09T09:06:09.545Z,20.69
2018-02-09T09:07:19.041Z,20.67
2018-02-09T09:08:28.039Z,20.7
2018-02-09T09:09:37.029Z,20.72
2018-02-09T09:10:45.998Z,20.69
2018-02-09T09:11:55.486Z,20.61
2018-02-09T09:13:05.006Z,20.69
2018-02-09T09:14:14.745Z,20.69
2018-02-09T09:15:24.011Z,20.57
2018-02-09T09:16:32.997Z,20.55
2018-02-09T09:17:42.199Z,20.51
2018-02-09T09:18:51.275Z,20.51
2018-02-09T09:20:00.017Z,20.52
2018-02-09T09:21:09.239Z,20.55
2018-02-09T09:22:18.715Z,20.5
2018-02-09T09:23:27.413Z,20.48
2018-02-09T09:24:36.930Z,20.42
2018-02-09T09:25:45.632Z,20.47
2018-02-09T09:26:55.116Z,20.42
2018-02-09T09:28:04.343Z,20.41
2018-02-09T09:29:13.033Z,20.41
2018-02-09T09:30:21.994Z,20.36
2018-02-09T09:31:30.950Z,20.36
2018-02-09T09:32:39.896Z,20.38
2018-02-09T09:33:48.598Z,20.38
2018-02-09T09:34:57.548Z,20.39
2018-02-09T09:36:07.298Z,20.38
2018-02-09T09:37:16.253Z,20.31
2018-02-09T09:38:24.937Z,20.32
2018-02-09T09:39:34.157Z,20.21
2018-02-09T09:40:43.373Z,20.2
2018-02-09T09:41:52.088Z,20.18
2018-02-09T09:43:01.335Z,20.18
2018-02-09T09:44:10.829Z,20.2
2018-02-09T09:45:19.778Z,20.18
2018-02-09T09:46:28.752Z,20.21
2018-02-09T09:47:37.428Z,20.26
2018-02-09T09:48:47.175Z,20.13
2018-02-09T09:49:56.171Z,20.21
2018-02-09T09:51:05.149Z,20.21
2018-02-09T09:52:13.833Z,20.08
2018-02-09T09:53:22.784Z,20.06
2018-02-09T09:54:32.316Z,20.1
2018-02-09T09:55:41.536Z,20.13
2018-02-09T09:56:50.280Z,20.13
2018-02-09T09:57:59.519Z,20.06
2018-02-09T09:59:08.225Z,20.13
2018-02-09T10:00:16.909Z,20.14
2018-02-09T10:01:25.851Z,20.02
2018-02-09T10:02:34.821Z,20.02
2018-02-09T10:03:43.782Z,20.05
2018-02-09T10:04:52.484Z,20.01
2018-02-09T10:06:01.180Z,19.98
2018-02-09T10:07:09.878Z,19.98
2018-02-09T10:08:19.095Z,19.95
2018-02-09T10:09:28.035Z,19.94
2018-02-09T10:10:36.987Z,19.94
2018-02-09T10:11:45.943Z,19.98
2018-02-09T10:12:55.423Z,19.95
2018-02-09T10:14:04.376Z,19.94
2018-02-09T10:15:13.346Z,19.91
2018-02-09T10:16:22.424Z,19.95
2018-02-09T10:17:31.157Z,19.91
2018-02-09T10:18:40.636Z,19.83
2018-02-09T10:19:50.668Z,19.84
2018-02-09T10:20:59.382Z,19.88
2018-02-09T10:22:08.721Z,19.8
2018-02-09T10:23:17.699Z,19.84
2018-02-09T10:24:26.945Z,19.86
2018-02-09T10:25:36.262Z,19.92
2018-02-09T10:26:45.196Z,19.84
2018-02-09T10:27:54.431Z,19.84
2018-02-09T10:29:03.425Z,19.87
2018-02-09T10:30:12.373Z,19.84
2018-02-09T10:31:21.063Z,19.91
2018-02-09T10:32:30.280Z,19.95
2018-02-09T10:33:39.497Z,19.84
2018-02-09T10:34:48.215Z,19.87
2018-02-09T10:35:56.904Z,19.87
2018-02-09T10:37:06.152Z,19.88
2018-02-09T10:38:15.649Z,19.86
2018-02-09T10:39:24.615Z,19.83
2018-02-09T10:40:34.136Z,19.84
2018-02-09T10:41:43.116Z,19.88
2018-02-09T10:42:52.584Z,19.88
2018-02-09T10:44:01.285Z,19.81
2018-02-09T10:45:10.529Z,19.86
2018-02-09T10:46:19.782Z,19.84
2018-02-09T10:47:28.746Z,19.78
2018-02-09T10:48:37.991Z,19.83
2018-02-09T10:49:47.226Z,19.83
2018-02-09T10:50:56.443Z,19.83
2018-02-09T10:52:05.405Z,19.87
2018-02-09T10:53:14.625Z,19.81
2018-02-09T10:54:23.584Z,19.83
2018-02-09T10:55:32.563Z,19.81
2018-02-09T10:56:42.108Z,19.83
2018-02-09T10:57:51.611Z,19.81
2018-02-09T10:59:00.830Z,19.84
2018-02-09T11:00:09.844Z,19.77
2018-02-09T11:01:18.820Z,19.76
2018-02-09T11:02:27.815Z,19.83
2018-02-09T11:03:36.769Z,19.84
2018-02-09T11:04:45.730Z,19.78
2018-02-09T11:05:54.983Z,19.84
2018-02-09T11:07:03.679Z,19.86
2018-02-09T11:08:12.951Z,19.84
2018-02-09T11:09:22.235Z,19.83
2018-02-09T11:10:31.231Z,19.78
2018-02-09T11:11:40.245Z,19.83
2018-02-09T11:12:49.212Z,19.86
2018-02-09T11:13:58.239Z,19.84
2018-02-09T11:15:07.342Z,19.77
2018-02-09T11:16:16.250Z,19.88
2018-02-09T11:17:24.948Z,19.81
2018-02-09T11:18:33.906Z,19.78
2018-02-09T11:19:42.598Z,19.77
2018-02-09T11:20:51.307Z,19.8
2018-02-09T11:22:00.254Z,19.83
2018-02-09T11:23:08.956Z,19.71
2018-02-09T11:24:17.911Z,19.74
2018-02-09T11:25:27.121Z,19.77
2018-02-09T11:26:36.090Z,19.8
2018-02-09T11:27:45.070Z,19.84
2018-02-09T11:28:53.784Z,19.84
2018-02-09T11:30:02.796Z,19.84
2018-02-09T11:31:12.096Z,19.84
2018-02-09T11:32:21.128Z,19.84
2018-02-09T11:33:30.074Z,19.76
2018-02-09T11:34:39.605Z,19.74
2018-02-09T11:35:48.560Z,19.76
2018-02-09T11:36:57.241Z,19.76
2018-02-09T11:38:06.204Z,19.78
2018-02-09T11:39:15.176Z,19.76
2018-02-09T11:40:24.701Z,19.81
2018-02-09T11:41:33.686Z,19.77
2018-02-09T11:42:42.805Z,19.77
2018-02-09T11:43:52.056Z,19.77
2018-02-09T11:45:01.015Z,19.73
2018-02-09T11:46:09.970Z,19.71
2018-02-09T11:47:18.959Z,19.78
2018-02-09T11:48:27.919Z,19.76
2018-02-09T11:49:37.149Z,19.73
2018-02-09T11:50:45.846Z,19.74
2018-02-09T11:51:55.309Z,19.76
2018-02-09T11:53:04.289Z,19.76
2018-02-09T11:54:13.583Z,19.77
2018-02-09T11:55:23.158Z,19.69
2018-02-09T11:56:31.880Z,19.74
2018-02-09T11:57:41.117Z,19.71
2018-02-09T11:58:50.106Z,19.76
2018-02-09T12:00:00.144Z,19.69
2018-02-09T12:01:09.374Z,19.66
2018-02-09T12:02:18.613Z,19.69
2018-02-09T12:03:27.321Z,19.74
2018-02-09T12:04:36.557Z,19.66
2018-02-09T12:05:46.056Z,19.65
2018-02-09T12:06:54.748Z,19.61
2018-02-09T12:08:03.506Z,19.63
2018-02-09T12:09:12.747Z,19.69
2018-02-09T12:10:21.997Z,19.66
2018-02-09T12:11:30.958Z,19.66
2018-02-09T12:12:39.952Z,19.68
2018-02-09T12:13:49.722Z,19.65
2018-02-09T12:14:58.477Z,19.62
2018-02-09T12:16:07.731Z,19.62
2018-02-09T12:17:17.002Z,19.73
2018-02-09T12:18:26.239Z,19.63
2018-02-09T12:19:35.462Z,19.66
2018-02-09T12:20:44.164Z,19.69
2018-02-09T12:21:53.155Z,19.69
2018-02-09T12:23:01.957Z,19.69
2018-02-09T12:24:10.647Z,19.62
2018-02-09T12:25:19.340Z,19.69
2018-02-09T12:26:28.078Z,19.73
2018-02-09T12:27:37.254Z,19.59
2018-02-09T12:28:46.761Z,19.61
2018-02-09T12:29:55.496Z,19.65
2018-02-09T12:31:04.193Z,19.65
2018-02-09T12:32:13.442Z,19.65
2018-02-09T12:33:22.415Z,19.61
2018-02-09T12:34:31.644Z,19.65
2018-02-09T12:35:40.589Z,19.66
2018-02-09T12:36:49.856Z,19.58
2018-02-09T12:37:58.868Z,19.71
2018-02-09T12:39:08.297Z,19.66
2018-02-09T12:40:16.987Z,19.63
2018-02-09T12:41:25.938Z,19.59
2018-02-09T12:42:34.691Z,19.65
2018-02-09T12:43:43.675Z,19.62
2018-02-09T12:44:53.142Z,19.58
2018-02-09T12:46:02.686Z,19.68
2018-02-09T12:47:11.402Z,19.61
2018-02-09T12:48:20.935Z,19.59
2018-02-09T12:49:29.943Z,19.61
2018-02-09T12:50:39.184Z,19.61
2018-02-09T12:51:48.839Z,19.62
2018-02-09T12:52:58.056Z,19.65
2018-02-09T12:54:07.054Z,19.62
2018-02-09T12:55:16.029Z,19.58
2018-02-09T12:56:24.975Z,19.56
2018-02-09T12:57:34.304Z,19.61
2018-02-09T12:58:43.007Z,19.62
2018-02-09T12:59:52.000Z,19.62
2018-02-09T13:01:00.975Z,19.59
2018-02-09T13:02:09.936Z,19.59
2018-02-09T13:03:19.192Z,19.54
2018-02-09T13:04:28.151Z,19.62
2018-02-09T13:05:37.392Z,19.63
2018-02-09T13:06:46.367Z,19.59
2018-02-09T13:07:55.360Z,19.56
2018-02-09T13:09:04.053Z,19.61
2018-02-09T13:10:13.607Z,19.51
2018-02-09T13:11:22.573Z,19.61
2018-02-09T13:12:31.641Z,19.58
2018-02-09T13:13:40.599Z,19.55
2018-02-09T13:14:49.556Z,19.56
2018-02-09T13:15:58.517Z,19.58
2018-02-09T13:17:07.482Z,19.56
2018-02-09T13:18:16.757Z,19.62
2018-02-09T13:19:25.743Z,19.56
2018-02-09T13:20:34.798Z,19.51
2018-02-09T13:21:44.110Z,19.56
2018-02-09T13:22:53.080Z,19.55
2018-02-09T13:24:01.863Z,19.55
2018-02-09T13:25:10.820Z,19.55
2018-02-09T13:26:19.881Z,19.5
2018-02-09T13:27:28.860Z,19.55
2018-02-09T13:28:37.820Z,19.55
2018-02-09T13:29:46.789Z,19.44
2018-02-09T13:30:55.480Z,19.5
2018-02-09T13:32:04.477Z,19.56
2018-02-09T13:33:13.222Z,19.46
2018-02-09T13:34:22.712Z,19.5
2018-02-09T13:35:31.709Z,19.46
2018-02-09T13:36:40.430Z,19.5
2018-02-09T13:37:49.178Z,19.43
2018-02-09T13:38:58.175Z,19.41
2018-02-09T13:40:06.841Z,19.46
2018-02-09T13:41:16.058Z,19.54
2018-02-09T13:42:25.045Z,19.5
2018-02-09T13:43:33.758Z,19.41
2018-02-09T13:44:42.456Z,19.41
2018-02-09T13:45:51.448Z,19.48
2018-02-09T13:47:00.161Z,19.5
2018-02-09T13:48:09.385Z,19.41
2018-02-09T13:49:18.183Z,19.47
2018-02-09T13:50:27.204Z,19.44
2018-02-09T13:51:36.455Z,19.47
2018-02-09T13:52:45.753Z,19.46
2018-02-09T13:53:54.961Z,19.4
2018-02-09T13:55:04.176Z,19.44
2018-02-09T13:56:13.156Z,19.5
2018-02-09T13:57:22.394Z,19.44
2018-02-09T13:58:31.914Z,19.46
2018-02-09T13:59:40.870Z,19.43
2018-02-09T14:00:50.435Z,19.47
2018-02-09T14:01:59.450Z,19.46
2018-02-09T14:03:08.508Z,19.46
2018-02-09T14:04:17.514Z,19.37
2018-02-09T14:05:26.221Z,19.39
2018-02-09T14:06:34.935Z,19.44
2018-02-09T14:07:44.227Z,19.46
2018-02-09T14:08:53.729Z,19.44
2018-02-09T14:10:02.711Z,19.47
2018-02-09T14:11:11.718Z,19.41
2018-02-09T14:12:20.731Z,19.48
2018-02-09T14:13:29.476Z,19.31
2018-02-09T14:15:03.852Z,19.32
2018-02-09T14:16:13.115Z,19.39
2018-02-09T14:17:22.353Z,19.44
2018-02-09T14:18:31.329Z,19.39
2018-02-09T14:19:40.380Z,19.41
2018-02-09T14:20:49.344Z,19.31
2018-02-09T14:21:58.586Z,19.4
2018-02-09T14:23:07.887Z,19.37
2018-02-09T14:24:16.578Z,19.36
2018-02-09T14:25:25.543Z,19.37
2018-02-09T14:26:34.541Z,19.41
2018-02-09T14:27:43.788Z,19.31
2018-02-09T14:28:52.765Z,19.32
2018-02-09T14:30:01.981Z,19.37
2018-02-09T14:31:10.936Z,19.36
2018-02-09T14:32:20.215Z,19.39
2018-02-09T14:33:29.442Z,19.29
2018-02-09T14:34:38.969Z,19.32
2018-02-09T14:35:48.181Z,19.26
2018-02-09T14:36:57.696Z,19.28
2018-02-09T14:38:06.906Z,19.36
2018-02-09T14:39:15.886Z,19.29
2018-02-09T14:40:25.110Z,19.33
2018-02-09T14:41:34.392Z,19.23
2018-02-09T14:42:43.371Z,19.32
2018-02-09T14:43:52.334Z,19.25
2018-02-09T14:45:01.043Z,19.25
2018-02-09T14:46:09.785Z,19.29
2018-02-09T14:47:19.031Z,19.31
2018-02-09T14:48:27.978Z,19.26
2018-02-09T14:49:37.215Z,19.29
2018-02-09T14:50:46.192Z,19.25
2018-02-09T14:51:54.882Z,19.29
2018-02-09T14:53:03.910Z,19.29